Norfolk, Virginia
Traffic Map
Current Weather Conditions
Norfolk, Virginia
Clear
Clear
68°
Feels Like: 68°
Wind Chill: 68° Ceiling: Unl
Heat Index: 68° Visibility: 10mi
Dew Point: 62° Wind: 8mph
Humidity: 81% Direction: 20° (NNE)
Pressure: 29.95in Gusts: 0mph
Raw Report DataKORF 011151Z AUTO 02007KT 10SM CLR 20/17 A2995 RMK AO2 SLP142 T02000167 10206 20194 53014 TSNO
Traffic Incident Summary
Active as of:
Severity:
Category:
InformationThere was an issue retrieving the traffic information for this location. Please try a different location or try again shortly.
Advertisements
Track Severe Weather on mobile